createdAt,value
2019-03-22T00:00:19.268Z,1.73
2019-03-22T00:01:19.481Z,2.14
2019-03-22T00:02:19.596Z,1.94
2019-03-22T00:03:19.903Z,1.52
2019-03-22T00:04:20.283Z,1.63
2019-03-22T00:05:20.532Z,1.28
2019-03-22T00:06:20.800Z,1.07
2019-03-22T00:07:21.099Z,1.46
2019-03-22T00:08:21.382Z,1.18
2019-03-22T00:09:21.675Z,1.39
2019-03-22T00:10:21.894Z,1.43
2019-03-22T00:11:22.227Z,1.83
2019-03-22T00:12:22.388Z,1.98
2019-03-22T00:13:22.578Z,1.66
2019-03-22T00:14:22.792Z,1.72
2019-03-22T00:15:23.023Z,1.59
2019-03-22T00:16:23.331Z,1.17
2019-03-22T00:17:23.557Z,1.66
2019-03-22T00:18:23.692Z,1.67
2019-03-22T00:19:23.979Z,1.90
2019-03-22T00:20:24.255Z,1.31
2019-03-22T00:21:24.393Z,1.12
2019-03-22T00:22:24.683Z,1.27
2019-03-22T00:23:24.850Z,1.33
2019-03-22T00:24:25.170Z,1.28
2019-03-22T00:25:25.341Z,1.31
2019-03-22T00:27:25.538Z,1.14
2019-03-22T00:28:25.746Z,1.31
2019-03-22T00:29:25.880Z,1.34
2019-03-22T00:30:26.135Z,1.30
2019-03-22T00:31:26.392Z,0.98
2019-03-22T00:32:26.667Z,0.79
2019-03-22T00:33:26.906Z,0.94
2019-03-22T00:34:27.210Z,0.97
2019-03-22T00:35:27.627Z,0.87
2019-03-22T00:36:27.857Z,0.59
2019-03-22T00:37:28.105Z,0.56
2019-03-22T00:38:28.507Z,0.48
2019-03-22T00:39:29.047Z,0.38
2019-03-22T00:40:28.762Z,0.03
2019-03-22T00:41:29.022Z,0.10
2019-03-22T00:42:29.163Z,0.62
2019-03-22T00:43:29.367Z,0.97
2019-03-22T00:44:29.347Z,0.91
2019-03-22T00:45:30.111Z,0.29
2019-03-22T00:46:30.803Z,0.21
2019-03-22T00:47:30.488Z,0.00
2019-03-22T00:48:30.647Z,0.00
2019-03-22T00:49:33.486Z,0.00
2019-03-22T00:50:31.395Z,0.62
2019-03-22T00:51:31.538Z,1.36
2019-03-22T00:52:31.813Z,1.55
2019-03-22T00:53:32.189Z,1.31
2019-03-22T00:54:32.434Z,1.25
2019-03-22T00:55:32.645Z,0.86
2019-03-22T00:56:32.821Z,1.56
2019-03-22T00:57:33.059Z,1.91
2019-03-22T00:58:33.269Z,2.43
2019-03-22T00:59:33.440Z,2.32
2019-03-22T01:00:33.654Z,1.79
2019-03-22T01:01:33.627Z,1.67
2019-03-22T01:02:34.263Z,1.57
2019-03-22T01:03:34.395Z,1.38
2019-03-22T01:04:34.441Z,2.11
2019-03-22T01:05:34.348Z,1.43
2019-03-22T01:06:35.062Z,1.56
2019-03-22T01:07:35.205Z,1.22
2019-03-22T01:08:35.391Z,1.14
2019-03-22T01:09:35.561Z,1.81
2019-03-22T01:10:35.806Z,1.42
2019-03-22T01:11:36.030Z,1.90
2019-03-22T01:12:36.169Z,2.60
2019-03-22T01:13:36.732Z,1.90
2019-03-22T01:14:36.390Z,2.03
2019-03-22T01:15:36.452Z,1.52
2019-03-22T01:16:36.630Z,2.06
2019-03-22T01:17:36.711Z,1.65
2019-03-22T01:18:36.987Z,1.83
2019-03-22T01:19:37.290Z,1.90
2019-03-22T01:20:37.439Z,1.65
2019-03-22T01:21:37.701Z,1.63
2019-03-22T01:22:37.893Z,1.25
2019-03-22T01:23:38.076Z,1.93
2019-03-22T01:24:38.309Z,1.76
2019-03-22T01:25:38.484Z,1.66
2019-03-22T01:26:38.596Z,1.67
2019-03-22T01:27:40.694Z,1.59
2019-03-22T01:28:39.098Z,0.73
2019-03-22T01:29:39.206Z,1.66
2019-03-22T01:30:39.449Z,3.00
2019-03-22T01:31:39.713Z,2.35
2019-03-22T01:32:39.858Z,1.10
2019-03-22T01:33:40.019Z,0.91
2019-03-22T01:34:40.166Z,1.52
2019-03-22T01:35:40.441Z,1.52
2019-03-22T01:36:40.603Z,1.08
2019-03-22T01:37:40.871Z,1.94
2019-03-22T01:38:41.082Z,2.30
2019-03-22T01:39:41.334Z,2.91
2019-03-22T01:40:41.522Z,1.97
2019-03-22T01:41:41.800Z,2.31
2019-03-22T01:42:02.322Z,1.10
2019-03-22T01:43:03.301Z,1.89
2019-03-22T01:44:03.919Z,2.20
2019-03-22T01:45:04.026Z,2.52
2019-03-22T01:46:04.242Z,2.48
2019-03-22T01:47:04.767Z,2.05
2019-03-22T01:48:04.556Z,1.69
2019-03-22T01:49:04.838Z,1.69
2019-03-22T01:50:05.186Z,2.16
2019-03-22T01:51:05.480Z,2.25
2019-03-22T01:52:05.724Z,2.28
2019-03-22T01:53:06.361Z,3.27
2019-03-22T01:54:06.446Z,2.25
2019-03-22T01:55:06.243Z,2.90
2019-03-22T01:56:06.557Z,2.40
2019-03-22T01:57:06.574Z,3.13
2019-03-22T01:58:06.981Z,2.03
2019-03-22T01:59:07.395Z,3.04
2019-03-22T02:00:07.621Z,2.40
2019-03-22T02:02:08.356Z,3.60
2019-03-22T02:03:08.140Z,4.23
2019-03-22T02:04:08.561Z,3.71
2019-03-22T02:05:09.073Z,1.96
2019-03-22T02:06:08.984Z,2.69
2019-03-22T02:07:09.328Z,3.17
2019-03-22T02:08:09.822Z,2.77
2019-03-22T02:09:10.024Z,4.28
2019-03-22T02:10:10.237Z,3.04
2019-03-22T02:11:10.653Z,2.95
2019-03-22T02:12:11.274Z,2.29
2019-03-22T02:13:11.398Z,2.40
2019-03-22T02:14:11.183Z,3.33
2019-03-22T02:15:11.389Z,3.39
2019-03-22T02:16:12.013Z,3.31
2019-03-22T02:17:12.119Z,2.89
2019-03-22T02:18:12.344Z,2.24
2019-03-22T02:19:12.241Z,2.22
2019-03-22T02:20:12.447Z,2.03
2019-03-22T02:21:12.862Z,1.83
2019-03-22T02:22:13.133Z,2.35
2019-03-22T02:23:13.297Z,3.17
2019-03-22T02:24:13.704Z,1.45
2019-03-22T02:25:14.223Z,2.46
2019-03-22T02:26:14.251Z,1.47
2019-03-22T02:27:14.146Z,2.17
2019-03-22T02:28:14.665Z,2.52
2019-03-22T02:29:14.589Z,2.55
2019-03-22T02:30:15.208Z,3.51
2019-03-22T02:31:14.982Z,2.65
2019-03-22T02:32:15.425Z,3.38
2019-03-22T02:33:15.819Z,2.87
2019-03-22T02:34:16.434Z,2.34
2019-03-22T02:35:28.385Z,3.36
2019-03-22T02:36:16.241Z,1.45
2019-03-22T02:37:16.636Z,1.25
2019-03-22T02:38:17.085Z,1.92
2019-03-22T02:39:17.618Z,2.67
2019-03-22T02:40:17.902Z,1.46
2019-03-22T02:41:18.056Z,2.89
2019-03-22T02:42:18.634Z,2.56
2019-03-22T02:43:18.444Z,0.97
2019-03-22T02:44:18.858Z,1.21
2019-03-22T02:45:19.160Z,1.63
2019-03-22T02:46:19.687Z,1.88
2019-03-22T02:47:19.488Z,1.72
2019-03-22T02:48:19.778Z,1.76
2019-03-22T02:49:20.112Z,0.97
2019-03-22T02:50:20.603Z,1.68
2019-03-22T02:51:20.537Z,1.10
2019-03-22T02:52:20.852Z,1.35
2019-03-22T02:53:21.204Z,1.40
2019-03-22T02:54:21.795Z,1.39
2019-03-22T02:55:21.692Z,1.87
2019-03-22T02:56:22.110Z,1.71
2019-03-22T02:57:22.345Z,1.33
2019-03-22T02:58:22.632Z,1.58
2019-03-22T02:59:23.023Z,1.25
2019-03-22T03:00:23.362Z,1.38
2019-03-22T03:01:23.883Z,1.40
2019-03-22T03:02:23.694Z,1.76
2019-03-22T03:03:24.215Z,1.95
2019-03-22T03:04:23.912Z,2.02
2019-03-22T03:05:24.526Z,2.38
2019-03-22T03:06:24.427Z,1.31
2019-03-22T03:07:24.739Z,0.69
2019-03-22T03:09:25.387Z,1.03
2019-03-22T03:10:25.483Z,0.89
2019-03-22T03:11:25.394Z,1.54
2019-03-22T03:12:26.001Z,1.33
2019-03-22T03:13:26.010Z,1.08
2019-03-22T03:14:26.022Z,1.10
2019-03-22T03:15:25.715Z,0.83
2019-03-22T03:16:26.335Z,0.91
2019-03-22T03:17:26.238Z,2.18
2019-03-22T03:18:26.860Z,1.26
2019-03-22T03:19:27.291Z,1.28
2019-03-22T03:20:27.140Z,0.58
2019-03-22T03:21:27.697Z,0.62
2019-03-22T03:22:27.704Z,1.25
2019-03-22T03:23:27.723Z,0.89
2019-03-22T03:24:27.513Z,0.71
2019-03-22T03:25:27.837Z,1.46
2019-03-22T03:26:28.250Z,1.88
2019-03-22T03:27:28.780Z,1.28
2019-03-22T03:28:36.492Z,1.00
2019-03-22T03:29:28.772Z,1.17
2019-03-22T03:30:29.313Z,0.83
2019-03-22T03:31:29.312Z,1.00
2019-03-22T03:32:29.729Z,1.27
2019-03-22T03:33:30.355Z,0.83
2019-03-22T03:34:30.351Z,1.16
2019-03-22T03:35:30.768Z,1.15
2019-03-22T03:36:34.662Z,0.17
2019-03-22T03:37:30.877Z,0.38
2019-03-22T03:38:31.200Z,0.27
2019-03-22T03:39:31.507Z,0.06
2019-03-22T03:40:31.929Z,0.52
2019-03-22T03:41:32.536Z,0.27
2019-03-22T03:42:32.454Z,0.00
2019-03-22T03:43:33.004Z,0.00
2019-03-22T03:44:32.386Z,0.00
2019-03-22T03:45:33.296Z,0.00
2019-03-22T03:46:33.706Z,0.00
2019-03-22T03:47:34.007Z,0.00
2019-03-22T03:48:34.323Z,0.00
2019-03-22T03:49:34.433Z,0.21
2019-03-22T03:50:35.053Z,0.89
2019-03-22T03:51:34.765Z,0.90
2019-03-22T03:52:35.276Z,0.98
2019-03-22T03:53:35.072Z,1.10
2019-03-22T03:54:35.303Z,1.47
2019-03-22T03:55:35.702Z,1.18
2019-03-22T03:56:35.752Z,1.32
2019-03-22T03:57:36.124Z,1.72
2019-03-22T03:58:51.245Z,1.59
2019-03-22T03:59:36.371Z,1.11
2019-03-22T04:00:36.452Z,1.75
2019-03-22T04:01:36.977Z,1.48
2019-03-22T04:02:36.938Z,1.57
2019-03-22T04:03:37.203Z,1.04
2019-03-22T04:04:37.703Z,1.74
2019-03-22T04:05:38.026Z,1.65
2019-03-22T04:06:38.333Z,0.93
2019-03-22T04:07:38.645Z,1.05
2019-03-22T04:08:39.169Z,0.62
2019-03-22T04:09:38.941Z,0.38
2019-03-22T04:10:39.184Z,0.00
2019-03-22T04:11:39.292Z,0.56
2019-03-22T04:12:39.500Z,1.13
2019-03-22T04:13:40.024Z,0.69
2019-03-22T04:14:39.771Z,0.37
2019-03-22T04:15:40.079Z,0.87
2019-03-22T04:16:40.449Z,1.29
2019-03-22T04:17:40.870Z,1.11
2019-03-22T04:18:41.039Z,1.08
2019-03-22T04:19:41.288Z,0.66
2019-03-22T04:20:41.665Z,1.04
2019-03-22T04:21:42.117Z,1.53
2019-03-22T04:23:42.653Z,1.28
2019-03-22T04:24:42.852Z,1.36
2019-03-22T04:25:43.266Z,1.31
2019-03-22T04:26:43.485Z,1.49
2019-03-22T04:27:43.805Z,1.45
2019-03-22T04:28:44.208Z,1.23
2019-03-22T04:29:44.356Z,1.22
2019-03-22T04:30:44.936Z,1.17
2019-03-22T04:31:44.743Z,1.26
2019-03-22T04:32:45.275Z,1.14
2019-03-22T04:33:45.060Z,1.17
2019-03-22T04:34:45.494Z,1.33
2019-03-22T04:35:45.792Z,1.14
2019-03-22T04:36:46.209Z,1.23
2019-03-22T04:37:46.737Z,1.40
2019-03-22T04:38:46.221Z,1.10
2019-03-22T04:39:47.324Z,1.19
2019-03-22T04:40:47.367Z,1.61
2019-03-22T04:41:47.265Z,1.55
2019-03-22T04:42:47.905Z,0.93
2019-03-22T04:43:47.688Z,0.77
2019-03-22T04:44:48.225Z,0.17
2019-03-22T04:45:48.112Z,1.10
2019-03-22T04:46:48.628Z,1.64
2019-03-22T04:47:48.737Z,1.25
2019-03-22T04:48:48.955Z,0.68
2019-03-22T04:49:49.345Z,0.72
2019-03-22T04:50:49.070Z,0.86
2019-03-22T04:51:49.687Z,0.77
2019-03-22T04:52:50.203Z,0.95
2019-03-22T04:53:50.627Z,1.08
2019-03-22T04:54:50.725Z,0.70
2019-03-22T04:55:51.352Z,1.08
2019-03-22T04:56:51.867Z,1.02
2019-03-22T04:57:52.389Z,1.05
2019-03-22T04:58:52.503Z,1.44
2019-03-22T04:59:52.197Z,1.44
2019-03-22T05:00:52.637Z,1.25
2019-03-22T05:01:52.719Z,1.05
2019-03-22T05:02:53.053Z,1.31
2019-03-22T05:03:53.665Z,0.98
2019-03-22T05:04:53.692Z,1.01
2019-03-22T05:05:54.179Z,0.80
2019-03-22T05:06:54.598Z,0.70
2019-03-22T05:08:54.931Z,0.86
2019-03-22T05:09:55.538Z,0.55
2019-03-22T05:10:55.646Z,0.52
2019-03-22T05:11:55.453Z,0.38
2019-03-22T05:12:55.649Z,0.73
2019-03-22T05:13:56.082Z,1.25
2019-03-22T05:14:56.701Z,1.29
2019-03-22T05:15:56.346Z,0.94
2019-03-22T05:16:56.714Z,1.43
2019-03-22T05:17:57.022Z,1.38
2019-03-22T05:18:57.554Z,1.50
2019-03-22T05:20:57.758Z,1.11
2019-03-22T05:21:57.873Z,1.34
2019-03-22T05:22:58.081Z,1.47
2019-03-22T05:23:58.510Z,1.38
2019-03-22T05:24:58.887Z,1.39
2019-03-22T05:25:59.055Z,1.85
2019-03-22T05:26:59.242Z,1.17
2019-03-22T05:27:59.382Z,1.41
2019-03-22T05:28:59.573Z,1.10
2019-03-22T05:29:59.969Z,0.96
2019-03-22T05:30:59.772Z,0.98
2019-03-22T05:32:00.391Z,0.62
2019-03-22T05:33:00.810Z,1.22
2019-03-22T05:34:01.768Z,1.07
2019-03-22T05:35:01.244Z,1.28
2019-03-22T05:36:01.443Z,1.49
2019-03-22T05:37:01.858Z,1.68
2019-03-22T05:38:01.715Z,1.32
2019-03-22T05:39:02.204Z,1.15
2019-03-22T05:40:02.507Z,0.90
2019-03-22T05:41:02.705Z,0.69
2019-03-22T05:42:02.707Z,0.07
2019-03-22T05:43:02.721Z,0.20
2019-03-22T05:44:03.042Z,0.34
2019-03-22T05:45:03.565Z,1.11
2019-03-22T05:46:03.967Z,0.98
2019-03-22T05:47:03.975Z,0.93
2019-03-22T05:48:04.401Z,1.05
2019-03-22T05:49:04.701Z,1.15
2019-03-22T05:50:05.330Z,1.15
2019-03-22T05:51:05.227Z,1.24
2019-03-22T05:52:05.741Z,1.05
2019-03-22T05:53:05.555Z,1.51
2019-03-22T05:54:05.961Z,0.95
2019-03-22T05:55:06.079Z,1.49
2019-03-22T05:56:06.371Z,1.58
2019-03-22T05:57:13.429Z,1.49
2019-03-22T05:58:07.318Z,1.91
2019-03-22T05:59:07.330Z,0.87
2019-03-22T06:00:07.345Z,0.83
2019-03-22T06:01:07.134Z,0.95
2019-03-22T06:02:07.242Z,1.52
2019-03-22T06:03:07.558Z,2.57
2019-03-22T06:04:08.097Z,2.43
2019-03-22T06:05:08.101Z,1.69
2019-03-22T06:06:08.297Z,1.89
2019-03-22T06:07:08.550Z,2.29
2019-03-22T06:08:08.922Z,1.94
2019-03-22T06:09:09.236Z,0.91
2019-03-22T06:10:09.564Z,1.74
2019-03-22T06:11:10.065Z,1.36
2019-03-22T06:12:10.388Z,0.77
2019-03-22T06:13:10.487Z,2.54
2019-03-22T06:14:10.991Z,1.39
2019-03-22T06:15:11.229Z,0.66
2019-03-22T06:16:11.735Z,2.79
2019-03-22T06:17:11.741Z,1.21
2019-03-22T06:18:11.442Z,0.76
2019-03-22T06:19:11.855Z,1.77
2019-03-22T06:20:12.342Z,1.75
2019-03-22T06:21:12.896Z,2.08
2019-03-22T06:22:12.698Z,1.69
2019-03-22T06:23:13.231Z,2.36
2019-03-22T06:24:13.017Z,2.61
2019-03-22T06:25:13.242Z,2.70
2019-03-22T06:26:13.961Z,1.92
2019-03-22T06:27:13.959Z,1.76
2019-03-22T06:28:13.978Z,0.97
2019-03-22T06:29:14.493Z,1.69
2019-03-22T06:30:14.389Z,1.38
2019-03-22T06:31:14.501Z,1.89
2019-03-22T06:32:14.717Z,2.30
2019-03-22T06:33:15.028Z,2.05
2019-03-22T06:34:15.493Z,1.76
2019-03-22T06:35:15.854Z,1.99
2019-03-22T06:36:16.166Z,1.80
2019-03-22T06:37:16.691Z,2.15
2019-03-22T06:38:17.109Z,2.37
2019-03-22T06:39:17.623Z,2.66
2019-03-22T06:40:17.624Z,2.13
2019-03-22T06:41:17.633Z,2.00
2019-03-22T06:42:18.153Z,1.13
2019-03-22T06:43:17.861Z,2.94
2019-03-22T06:44:18.273Z,1.72
2019-03-22T06:45:18.379Z,2.73
2019-03-22T06:46:18.792Z,2.49
2019-03-22T06:47:19.208Z,2.56
2019-03-22T06:48:19.736Z,3.39
2019-03-22T06:49:19.837Z,1.72
2019-03-22T06:50:19.638Z,1.23
2019-03-22T06:51:20.054Z,2.15
2019-03-22T06:52:20.338Z,2.23
2019-03-22T06:53:20.656Z,1.49
2019-03-22T06:54:31.031Z,1.50
2019-03-22T06:55:21.019Z,1.60
2019-03-22T06:56:21.521Z,1.68
2019-03-22T06:57:21.523Z,0.40
2019-03-22T06:58:24.102Z,0.85
2019-03-22T06:59:21.538Z,1.49
2019-03-22T07:00:21.965Z,0.56
2019-03-22T07:01:22.062Z,0.35
2019-03-22T07:02:22.281Z,1.80
2019-03-22T07:03:22.514Z,1.60
2019-03-22T07:04:22.938Z,0.76
2019-03-22T07:05:23.119Z,0.64
2019-03-22T07:06:23.432Z,1.11
2019-03-22T07:07:23.540Z,1.85
2019-03-22T07:09:23.970Z,2.21
2019-03-22T07:10:24.483Z,2.43
2019-03-22T07:11:24.908Z,3.99
2019-03-22T07:12:25.213Z,4.57
2019-03-22T07:13:25.838Z,4.89
2019-03-22T07:14:25.430Z,3.63
2019-03-22T07:15:25.851Z,4.49
2019-03-22T07:16:26.361Z,4.28
2019-03-22T07:17:26.369Z,3.58
2019-03-22T07:18:26.181Z,3.71
2019-03-22T07:19:26.790Z,3.52
2019-03-22T07:20:26.614Z,3.58
2019-03-22T07:21:27.110Z,3.01
2019-03-22T07:22:27.219Z,3.78
2019-03-22T07:23:27.132Z,1.92
2019-03-22T07:24:27.643Z,2.57
2019-03-22T07:25:27.540Z,2.77
2019-03-22T07:26:30.048Z,2.13
2019-03-22T07:27:28.387Z,3.41
2019-03-22T07:28:28.803Z,4.25
2019-03-22T07:29:29.119Z,3.30
2019-03-22T07:30:29.538Z,2.57
2019-03-22T07:31:29.839Z,2.48
2019-03-22T07:32:30.261Z,3.33
2019-03-22T07:33:30.374Z,2.34
2019-03-22T07:34:30.990Z,2.24
2019-03-22T07:35:30.891Z,2.17
2019-03-22T07:36:31.201Z,2.75
2019-03-22T07:37:31.722Z,1.71
2019-03-22T07:38:31.649Z,1.28
2019-03-22T07:39:32.242Z,1.88
2019-03-22T07:40:32.661Z,1.21
2019-03-22T07:41:32.570Z,0.87
2019-03-22T07:42:32.987Z,1.08
2019-03-22T07:43:33.612Z,1.37
2019-03-22T07:44:33.513Z,0.93
2019-03-22T07:45:33.927Z,1.51
2019-03-22T07:46:34.136Z,3.18
2019-03-22T07:47:34.656Z,2.69
2019-03-22T07:48:34.942Z,1.96
2019-03-22T07:49:34.683Z,0.62
2019-03-22T07:50:35.613Z,0.58
2019-03-22T07:51:35.810Z,1.09
2019-03-22T07:52:36.324Z,1.52
2019-03-22T07:53:36.134Z,1.50
2019-03-22T07:54:36.542Z,1.25
2019-03-22T07:55:36.755Z,1.15
2019-03-22T07:56:37.379Z,2.36
2019-03-22T07:57:37.281Z,1.04
2019-03-22T07:58:37.805Z,1.61
2019-03-22T07:59:37.909Z,2.07
2019-03-22T08:00:37.815Z,0.85
2019-03-22T08:01:37.817Z,2.12
2019-03-22T08:02:38.844Z,3.67
2019-03-22T08:03:38.812Z,2.57
2019-03-22T08:04:39.065Z,3.45
2019-03-22T08:05:50.559Z,3.37
2019-03-22T08:06:39.901Z,2.33
2019-03-22T08:07:40.045Z,2.65
2019-03-22T08:08:40.537Z,2.81
2019-03-22T08:09:40.476Z,3.51
2019-03-22T08:10:40.864Z,2.33
2019-03-22T08:11:41.015Z,2.43
2019-03-22T08:12:41.269Z,2.74
2019-03-22T08:13:41.591Z,3.31
2019-03-22T08:14:42.002Z,3.34
2019-03-22T08:15:42.562Z,2.94
2019-03-22T08:16:42.627Z,3.50
2019-03-22T08:17:42.430Z,3.25
2019-03-22T08:18:42.854Z,2.93
2019-03-22T08:19:43.162Z,2.38
2019-03-22T08:20:43.546Z,3.42
2019-03-22T08:21:43.918Z,2.94
2019-03-22T08:22:44.407Z,2.75
2019-03-22T08:23:44.155Z,3.75
2019-03-22T08:24:44.646Z,3.02
2019-03-22T08:25:44.971Z,2.21
2019-03-22T08:26:45.408Z,4.40
2019-03-22T08:27:45.155Z,4.35
2019-03-22T08:28:45.991Z,2.63
2019-03-22T08:29:46.461Z,1.40
2019-03-22T08:30:46.817Z,2.65
2019-03-22T08:31:47.436Z,3.08
2019-03-22T08:32:50.249Z,3.55
2019-03-22T08:33:47.273Z,2.46
2019-03-22T08:34:48.097Z,2.85
2019-03-22T08:35:47.775Z,2.06
2019-03-22T08:36:48.292Z,2.57
2019-03-22T08:37:52.755Z,2.48
2019-03-22T08:38:48.418Z,2.94
2019-03-22T08:39:48.206Z,2.44
2019-03-22T08:40:48.529Z,2.41
2019-03-22T08:41:48.939Z,2.78
2019-03-22T08:42:49.341Z,3.39
2019-03-22T08:43:49.671Z,3.00
2019-03-22T08:44:50.283Z,1.81
2019-03-22T08:45:49.986Z,2.21
2019-03-22T08:46:50.316Z,2.84
2019-03-22T08:47:50.839Z,3.54
2019-03-22T08:48:50.421Z,3.19
2019-03-22T08:49:50.968Z,2.83
2019-03-22T08:50:50.977Z,4.09
2019-03-22T08:51:51.504Z,2.34
2019-03-22T08:52:51.769Z,1.90
2019-03-22T08:53:55.571Z,2.43
2019-03-22T08:54:52.398Z,1.14
2019-03-22T08:55:52.854Z,1.14
2019-03-22T08:56:53.024Z,2.00
2019-03-22T08:57:53.541Z,0.73
2019-03-22T08:58:53.516Z,0.78
2019-03-22T08:59:53.250Z,1.55
2019-03-22T09:00:57.881Z,1.74
2019-03-22T09:01:53.840Z,1.22
2019-03-22T09:02:54.137Z,1.90
2019-03-22T09:03:54.396Z,2.74
2019-03-22T09:04:54.817Z,1.73
2019-03-22T09:05:55.238Z,2.90
2019-03-22T09:06:56.115Z,2.20
2019-03-22T09:07:55.763Z,2.89
2019-03-22T09:08:55.590Z,2.89
2019-03-22T09:09:55.998Z,1.33
2019-03-22T09:10:56.191Z,2.46
2019-03-22T09:11:56.605Z,2.30
2019-03-22T09:12:56.739Z,2.87
2019-03-22T09:13:57.251Z,2.13
2019-03-22T09:14:57.141Z,2.96
2019-03-22T09:15:57.662Z,2.51
2019-03-22T09:16:57.708Z,2.30
2019-03-22T09:17:57.820Z,2.41
2019-03-22T09:18:57.701Z,3.49
2019-03-22T09:19:58.298Z,1.84
2019-03-22T09:20:58.187Z,4.21
2019-03-22T09:21:59.755Z,2.91
2019-03-22T09:22:58.520Z,3.44
2019-03-22T09:23:58.987Z,2.49
2019-03-22T09:24:59.382Z,3.72
2019-03-22T09:25:59.668Z,3.43
2019-03-22T09:27:00.303Z,3.11
2019-03-22T09:28:00.400Z,1.82
2019-03-22T09:29:00.724Z,2.90
2019-03-22T09:30:00.618Z,3.49
2019-03-22T09:31:10.130Z,2.38
2019-03-22T09:32:00.972Z,4.57
2019-03-22T09:34:01.519Z,2.21
2019-03-22T09:35:02.038Z,2.62
2019-03-22T09:36:02.261Z,3.17
2019-03-22T09:37:02.510Z,4.19
2019-03-22T09:38:12.345Z,4.50
2019-03-22T09:39:02.942Z,5.00
2019-03-22T09:40:03.102Z,3.30
2019-03-22T09:41:03.325Z,2.45
2019-03-22T09:42:03.320Z,2.35
2019-03-22T09:43:03.496Z,4.43
2019-03-22T09:44:03.628Z,3.11
2019-03-22T09:45:03.883Z,3.17
2019-03-22T09:46:04.142Z,4.19
2019-03-22T09:47:04.569Z,5.09
2019-03-22T09:48:06.086Z,4.32
2019-03-22T09:49:05.652Z,4.93
2019-03-22T09:50:05.589Z,5.11
2019-03-22T09:51:05.510Z,4.21
2019-03-22T09:52:05.937Z,3.29
2019-03-22T09:53:06.155Z,4.50
2019-03-22T09:54:06.617Z,4.16
2019-03-22T09:55:13.302Z,3.89
2019-03-22T09:56:07.493Z,1.35
2019-03-22T09:57:07.069Z,5.60
2019-03-22T09:58:07.235Z,4.42
2019-03-22T09:59:07.831Z,2.38
2019-03-22T10:00:07.614Z,2.86
2019-03-22T10:01:08.053Z,1.86
2019-03-22T10:02:08.045Z,4.48
2019-03-22T10:03:08.037Z,3.03
2019-03-22T10:04:08.047Z,1.93
2019-03-22T10:05:08.058Z,2.00
2019-03-22T10:06:08.277Z,4.77
2019-03-22T10:07:08.491Z,3.28
2019-03-22T10:08:08.592Z,3.00
2019-03-22T10:09:08.921Z,2.80
2019-03-22T10:10:09.347Z,2.68
2019-03-22T10:11:09.518Z,2.65
2019-03-22T10:12:09.690Z,1.86
2019-03-22T10:13:10.152Z,1.46
2019-03-22T10:14:10.772Z,1.32
2019-03-22T10:15:11.293Z,4.07
2019-03-22T10:16:10.926Z,2.46
2019-03-22T10:17:10.907Z,3.07
2019-03-22T10:18:10.823Z,2.96
2019-03-22T10:19:11.369Z,2.13
2019-03-22T10:20:11.306Z,1.43
2019-03-22T10:21:21.818Z,3.52
2019-03-22T10:22:12.617Z,3.33
2019-03-22T10:23:12.710Z,3.19
2019-03-22T10:24:13.089Z,2.30
2019-03-22T10:25:13.647Z,3.62
2019-03-22T10:26:13.650Z,1.62
2019-03-22T10:27:13.682Z,1.13
2019-03-22T10:28:13.648Z,0.95
2019-03-22T10:29:13.331Z,2.06
2019-03-22T10:30:13.805Z,2.04
2019-03-22T10:31:13.916Z,5.11
2019-03-22T10:32:14.096Z,3.32
2019-03-22T10:33:22.549Z,3.67
2019-03-22T10:34:14.656Z,2.32
2019-03-22T10:35:25.547Z,2.68
2019-03-22T10:36:15.155Z,1.98
2019-03-22T10:37:15.779Z,2.84
2019-03-22T10:38:16.829Z,1.80
2019-03-22T10:39:15.807Z,1.83
2019-03-22T10:40:15.493Z,2.69
2019-03-22T10:41:16.006Z,1.90
2019-03-22T10:42:16.184Z,0.80
2019-03-22T10:43:16.473Z,1.47
2019-03-22T10:44:17.110Z,2.07
2019-03-22T10:45:17.122Z,1.58
2019-03-22T10:46:17.126Z,4.03
2019-03-22T10:47:18.144Z,2.72
2019-03-22T10:48:17.355Z,2.67
2019-03-22T10:49:17.336Z,2.46
2019-03-22T10:50:17.913Z,2.29
2019-03-22T10:51:21.333Z,1.17
2019-03-22T10:52:17.889Z,3.44
2019-03-22T10:53:18.435Z,5.21
2019-03-22T10:54:18.333Z,4.77
2019-03-22T10:55:29.866Z,3.31
2019-03-22T10:56:19.241Z,2.66
2019-03-22T10:57:19.117Z,2.79
2019-03-22T10:58:21.389Z,3.22
2019-03-22T10:59:19.774Z,3.05
2019-03-22T11:00:19.621Z,3.11
2019-03-22T11:01:20.093Z,2.18
2019-03-22T11:02:20.025Z,2.44
2019-03-22T11:03:20.359Z,1.74
2019-03-22T11:04:20.815Z,1.92
2019-03-22T11:05:21.147Z,1.36
2019-03-22T11:06:26.164Z,4.47
2019-03-22T11:07:21.411Z,3.03
2019-03-22T11:08:21.898Z,3.00
2019-03-22T11:09:21.887Z,4.02
2019-03-22T11:10:22.201Z,3.64
2019-03-22T11:11:22.305Z,3.43
2019-03-22T11:12:22.937Z,2.66
2019-03-22T11:13:22.323Z,1.32
2019-03-22T11:14:22.950Z,2.47
2019-03-22T11:15:23.989Z,2.16
2019-03-22T11:16:23.570Z,3.03
2019-03-22T11:17:23.790Z,3.62
2019-03-22T11:18:23.990Z,2.83
2019-03-22T11:19:24.309Z,3.80
2019-03-22T11:20:24.718Z,3.04
2019-03-22T11:21:24.975Z,1.14
2019-03-22T11:22:25.564Z,1.64
2019-03-22T11:23:25.559Z,1.87
2019-03-22T11:24:26.088Z,1.72
2019-03-22T11:25:26.160Z,1.99
2019-03-22T11:26:26.196Z,2.30
2019-03-22T11:27:25.698Z,2.19
2019-03-22T11:28:25.905Z,2.31
2019-03-22T11:29:26.417Z,3.07
2019-03-22T11:30:26.427Z,4.43
2019-03-22T11:31:28.662Z,5.81
2019-03-22T11:32:26.865Z,3.60
2019-03-22T11:33:26.716Z,5.28
2019-03-22T11:34:26.966Z,6.42
2019-03-22T11:35:27.277Z,2.30
2019-03-22T11:36:27.488Z,5.18
2019-03-22T11:37:28.029Z,4.14
2019-03-22T11:38:27.911Z,4.29
2019-03-22T11:39:28.429Z,4.09
2019-03-22T11:40:28.446Z,4.39
2019-03-22T11:41:28.035Z,4.95
2019-03-22T11:42:28.549Z,4.19
2019-03-22T11:43:28.566Z,3.60
2019-03-22T11:44:28.671Z,2.43
2019-03-22T11:45:28.776Z,3.67
2019-03-22T11:46:31.045Z,3.76
2019-03-22T11:47:29.097Z,3.06
2019-03-22T11:48:29.419Z,3.48
2019-03-22T11:49:29.935Z,3.37
2019-03-22T11:50:29.936Z,6.34
2019-03-22T11:51:29.840Z,5.90
2019-03-22T11:52:30.152Z,2.75
2019-03-22T11:53:30.690Z,2.82
2019-03-22T11:54:30.778Z,2.31
2019-03-22T11:55:30.622Z,1.42
2019-03-22T11:56:31.205Z,1.22
2019-03-22T11:57:31.311Z,2.49
2019-03-22T11:58:31.223Z,2.09
2019-03-22T11:59:31.734Z,2.16
2019-03-22T12:00:31.945Z,2.36
2019-03-22T12:01:31.746Z,3.08
2019-03-22T12:02:32.268Z,2.64
2019-03-22T12:03:32.693Z,2.30
2019-03-22T12:04:33.198Z,4.22
2019-03-22T12:05:40.335Z,3.99
2019-03-22T12:06:33.214Z,2.57
2019-03-22T12:07:33.728Z,2.47
2019-03-22T12:08:33.850Z,3.82
2019-03-22T12:09:33.947Z,3.80
2019-03-22T12:10:33.956Z,2.89
2019-03-22T12:11:34.374Z,4.05
2019-03-22T12:12:34.589Z,2.40
2019-03-22T12:13:35.008Z,1.34
2019-03-22T12:14:35.314Z,2.79
2019-03-22T12:15:35.525Z,2.84
2019-03-22T12:16:35.941Z,2.20
2019-03-22T12:17:36.254Z,2.56
2019-03-22T12:18:36.781Z,1.40
2019-03-22T12:19:36.678Z,1.17
2019-03-22T12:20:36.888Z,1.35
2019-03-22T12:21:37.407Z,2.66
2019-03-22T12:22:38.511Z,1.48
2019-03-22T12:23:37.335Z,1.58
2019-03-22T12:24:37.836Z,2.06
2019-03-22T12:25:38.354Z,2.31
2019-03-22T12:26:38.054Z,2.84
2019-03-22T12:27:38.266Z,2.60
2019-03-22T12:28:38.683Z,2.11
2019-03-22T12:29:38.903Z,2.34
2019-03-22T12:30:39.208Z,2.48
2019-03-22T12:32:39.421Z,1.34
2019-03-22T12:33:39.740Z,2.17
2019-03-22T12:34:40.164Z,0.90
2019-03-22T12:35:42.458Z,0.93
2019-03-22T12:36:40.586Z,1.91
2019-03-22T12:37:40.889Z,0.66
2019-03-22T12:38:41.101Z,2.05
2019-03-22T12:39:42.002Z,2.43
2019-03-22T12:40:42.034Z,1.92
2019-03-22T12:41:41.942Z,2.94
2019-03-22T12:42:42.363Z,2.92
2019-03-22T12:43:42.980Z,2.17
2019-03-22T12:44:42.993Z,2.63
2019-03-22T12:45:42.991Z,2.51
2019-03-22T12:46:43.510Z,1.48
2019-03-22T12:47:43.619Z,2.65
2019-03-22T12:48:43.731Z,2.52
2019-03-22T12:49:43.746Z,2.62
2019-03-22T12:50:43.533Z,2.41
2019-03-22T12:51:43.850Z,1.62
2019-03-22T12:52:44.365Z,1.50
2019-03-22T12:53:44.274Z,2.67
2019-03-22T12:54:44.706Z,1.11
2019-03-22T12:55:45.103Z,1.84
2019-03-22T12:56:45.317Z,3.34
2019-03-22T12:58:45.738Z,3.05
2019-03-22T12:59:46.260Z,3.14
2019-03-22T13:00:46.682Z,2.36
2019-03-22T13:01:46.911Z,0.93
2019-03-22T13:02:47.188Z,1.96
2019-03-22T13:03:47.304Z,2.25
2019-03-22T13:04:47.678Z,0.87
2019-03-22T13:05:47.902Z,1.49
2019-03-22T13:06:48.316Z,4.43
2019-03-22T13:07:48.666Z,2.13
2019-03-22T13:08:48.798Z,1.46
2019-03-22T13:09:48.987Z,2.45
2019-03-22T13:10:49.008Z,1.55
2019-03-22T13:11:49.219Z,3.84
2019-03-22T13:12:49.524Z,2.32
2019-03-22T13:13:49.936Z,1.62
2019-03-22T13:14:50.255Z,1.61
2019-03-22T13:15:50.674Z,1.39
2019-03-22T13:16:51.190Z,2.10
2019-03-22T13:17:50.879Z,2.83
2019-03-22T13:18:51.194Z,5.21
2019-03-22T13:19:51.302Z,5.18
2019-03-22T13:20:51.834Z,3.66
2019-03-22T13:21:51.524Z,2.09
2019-03-22T13:22:51.938Z,1.39
2019-03-22T13:23:52.244Z,1.16
2019-03-22T13:24:52.871Z,0.73
2019-03-22T13:25:52.626Z,1.20
2019-03-22T13:26:52.577Z,0.63
2019-03-22T13:27:53.592Z,1.65
2019-03-22T13:28:53.208Z,2.41
2019-03-22T13:29:53.515Z,1.68
2019-03-22T13:30:53.841Z,0.39